Time;durP1;ratioP1;P1;durP2;ratioP2;P2;SDS_P1;SDS_P2;PMS_P1;PMS_P2;Temp;Humidity;BMP_temperature;BMP_pressure;BME280_temperature;BME280_humidity;BME280_pressure;Samples;Min_cycle;Max_cycle;Signal;HPM_P1;HPM_P2
2022/11/26 00:00:53;;;;;;;13.25;9.73;;;12.80;99.90;;;;;;4982305;28;20745;-76
2022/11/26 00:03:21;;;;;;;17.33;9.13;;;12.70;99.90;;;;;;4973958;28;20498;-77
2022/11/26 00:05:52;;;;;;;12.00;9.40;;;12.70;99.90;;;;;;4980921;28;20105;-76
2022/11/26 00:08:32;;;;;;;13.60;8.82;;;12.80;99.90;;;;;;4963432;28;20132;-77
2022/11/26 00:11:01;;;;;;;11.23;7.80;;;12.80;99.90;;;;;;4967530;28;20536;-76
2022/11/26 00:13:30;;;;;;;8.43;6.32;;;12.80;99.90;;;;;;4977477;28;20051;-76
2022/11/26 00:15:57;;;;;;;10.23;5.50;;;12.80;99.90;;;;;;4952804;28;20048;-77
2022/11/26 00:18:27;;;;;;;7.55;4.75;;;12.70;99.90;;;;;;4978862;28;20507;-77
2022/11/26 00:20:59;;;;;;;7.45;4.72;;;12.70;99.90;;;;;;4984003;28;20059;-76
2022/11/26 00:23:27;;;;;;;6.22;4.65;;;12.70;99.90;;;;;;4977266;28;20038;-75
2022/11/26 00:25:58;;;;;;;8.77;5.93;;;12.70;99.90;;;;;;4941361;28;20074;-75
2022/11/26 00:28:35;;;;;;;7.18;4.97;;;12.70;99.90;;;;;;4952995;28;20043;-74
2022/11/26 00:31:06;;;;;;;7.22;4.80;;;12.70;99.90;;;;;;4974532;28;20149;-74
2022/11/26 00:33:34;;;;;;;15.32;9.80;;;12.80;99.90;;;;;;4976741;28;20039;-75
2022/11/26 00:36:24;;;;;;;13.70;7.80;;;12.80;99.90;;;;;;4968684;28;20462;-76
2022/11/26 00:39:05;;;;;;;8.65;5.78;;;12.80;99.90;;;;;;4973707;28;20046;-74
2022/11/26 00:41:37;;;;;;;10.25;5.88;;;12.80;99.90;;;;;;4954599;28;20055;-76
2022/11/26 00:44:25;;;;;;;10.40;5.15;;;12.80;99.90;;;;;;4961644;28;20121;-76
2022/11/26 00:46:52;;;;;;;18.48;11.55;;;12.80;99.90;;;;;;4962889;28;20047;-75
2022/11/26 00:49:20;;;;;;;21.45;12.77;;;12.60;99.90;;;;;;4963536;28;20077;-75
2022/11/26 00:51:48;;;;;;;25.25;14.75;;;12.60;99.90;;;;;;4963298;28;20485;-76
2022/11/26 00:54:17;;;;;;;19.92;14.63;;;12.50;99.90;;;;;;4955712;28;20125;-76
2022/11/26 00:56:47;;;;;;;15.68;10.10;;;12.50;99.90;;;;;;4975217;28;20113;-75
2022/11/26 00:59:19;;;;;;;10.15;7.13;;;12.50;99.90;;;;;;4971789;28;20042;-75
2022/11/26 01:01:47;;;;;;;9.77;5.80;;;12.50;99.90;;;;;;4955094;28;20050;-74
2022/11/26 01:04:14;;;;;;;7.72;4.40;;;12.60;99.90;;;;;;4960015;28;20394;-74
2022/11/26 01:06:44;;;;;;;13.07;6.38;;;12.60;99.90;;;;;;4979704;28;20047;-74
2022/11/26 01:09:20;;;;;;;9.90;6.30;;;12.60;99.90;;;;;;4953116;28;20078;-74
2022/11/26 01:11:47;;;;;;;8.50;5.75;;;12.70;99.90;;;;;;4970161;28;20484;-75
2022/11/26 01:14:20;;;;;;;8.43;6.35;;;12.80;99.90;;;;;;4960639;28;20053;-74
2022/11/26 01:16:48;;;;;;;7.20;5.38;;;12.80;99.90;;;;;;4981734;28;20136;-74
2022/11/26 01:19:16;;;;;;;9.75;5.35;;;12.80;99.90;;;;;;4952807;28;20094;-74
2022/11/26 01:21:43;;;;;;;6.93;4.13;;;12.80;99.90;;;;;;4974598;28;20176;-74
2022/11/26 01:24:11;;;;;;;6.47;4.60;;;12.80;99.90;;;;;;4976745;28;20125;-74
2022/11/26 01:26:43;;;;;;;9.95;5.53;;;12.70;99.90;;;;;;4957798;28;20138;-74
2022/11/26 01:29:18;;;;;;;7.60;4.50;;;12.60;99.90;;;;;;4974809;28;20062;-74
2022/11/26 01:31:46;;;;;;;8.65;3.92;;;12.60;99.90;;;;;;4959318;28;20777;-74
2022/11/26 01:34:13;;;;;;;8.25;5.72;;;12.70;99.90;;;;;;4957233;28;20576;-74
2022/11/26 01:36:41;;;;;;;6.45;4.50;;;12.60;99.90;;;;;;4946688;28;20050;-74
2022/11/26 01:39:08;;;;;;;6.50;4.38;;;12.60;99.90;;;;;;4952501;28;20136;-74
2022/11/26 01:42:04;;;;;;;7.75;4.72;;;12.60;99.90;;;;;;4930065;28;20039;-74
2022/11/26 01:44:34;;;;;;;11.15;5.75;;;12.50;99.90;;;;;;4932170;28;20389;-74
2022/11/26 01:47:35;;;;;;;11.20;5.53;;;12.50;99.90;;;;;;4964256;28;20050;-73
2022/11/26 01:50:27;;;;;;;12.07;7.15;;;12.40;99.90;;;;;;4981120;28;20082;-74
2022/11/26 01:52:58;;;;;;;4.97;2.85;;;12.40;99.90;;;;;;4970108;28;20039;-74
2022/11/26 01:55:34;;;;;;;3.47;2.70;;;12.40;99.90;;;;;;4970267;28;20058;-74
2022/11/26 01:58:04;;;;;;;5.32;3.42;;;12.40;99.90;;;;;;4970668;28;20126;-74
2022/11/26 02:00:32;;;;;;;6.43;3.10;;;12.40;99.90;;;;;;4969525;28;20047;-74
2022/11/26 02:03:01;;;;;;;4.60;3.50;;;12.50;99.90;;;;;;4969331;28;20051;-73
2022/11/26 02:05:32;;;;;;;6.22;3.83;;;12.60;99.90;;;;;;4969185;28;20051;-74
2022/11/26 02:08:01;;;;;;;21.00;12.73;;;12.60;99.90;;;;;;4970248;28;20595;-73
2022/11/26 02:10:28;;;;;;;10.90;7.22;;;12.60;99.90;;;;;;4970611;28;20043;-74
2022/11/26 02:12:56;;;;;;;9.38;5.55;;;12.60;99.90;;;;;;4968655;28;20051;-74
2022/11/26 02:15:28;;;;;;;8.93;6.22;;;12.60;99.90;;;;;;4967846;28;20484;-74
2022/11/26 02:18:08;;;;;;;10.93;6.60;;;12.60;99.90;;;;;;4968773;28;20073;-74
2022/11/26 02:20:50;;;;;;;11.00;5.25;;;12.60;99.90;;;;;;4970297;28;20057;-74
2022/11/26 02:23:59;;;;;;;7.07;5.35;;;12.60;99.90;;;;;;4969195;28;20051;-74
2022/11/26 02:26:42;;;;;;;7.50;5.68;;;12.40;99.90;;;;;;4966707;28;20531;-74
2022/11/26 02:29:27;;;;;;;10.43;4.90;;;12.40;99.90;;;;;;4953289;28;20066;-74
2022/11/26 02:32:15;;;;;;;11.63;5.90;;;12.40;99.90;;;;;;4952763;28;20059;-74
2022/11/26 02:35:17;;;;;;;7.57;4.93;;;12.50;99.90;;;;;;4968282;28;20039;-74
2022/11/26 02:37:56;;;;;;;6.97;5.15;;;12.50;99.90;;;;;;4969029;28;20149;-74
2022/11/26 02:40:25;;;;;;;7.00;4.55;;;12.60;99.90;;;;;;4952740;28;20050;-74
2022/11/26 02:42:53;;;;;;;5.65;4.63;;;12.60;99.90;;;;;;4952598;28;20054;-74
2022/11/26 02:45:24;;;;;;;8.05;3.75;;;12.60;99.90;;;;;;4955741;28;20057;-74
2022/11/26 02:47:56;;;;;;;6.75;3.88;;;12.50;99.90;;;;;;4971670;28;20056;-74
2022/11/26 02:50:38;;;;;;;5.53;3.65;;;12.50;99.90;;;;;;4988125;28;20058;-74
2022/11/26 02:53:08;;;;;;;5.53;2.97;;;12.60;99.90;;;;;;4971676;28;20058;-74
2022/11/26 02:55:40;;;;;;;4.78;2.63;;;12.50;99.90;;;;;;4955389;28;20074;-73
2022/11/26 02:58:08;;;;;;;5.85;2.70;;;12.50;99.90;;;;;;4969149;28;20048;-73
2022/11/26 03:00:40;;;;;;;4.43;2.70;;;12.50;99.90;;;;;;4968287;28;20050;-73
2022/11/26 03:03:25;;;;;;;3.65;2.80;;;12.50;99.90;;;;;;4933522;29;20051;-73
2022/11/26 03:05:57;;;;;;;4.50;3.22;;;12.50;99.90;;;;;;4970632;28;20126;-74
2022/11/26 03:08:26;;;;;;;4.95;2.90;;;12.60;99.90;;;;;;4972660;28;20046;-73
2022/11/26 03:10:53;;;;;;;7.70;3.78;;;12.60;99.90;;;;;;4972172;28;20153;-74
2022/11/26 03:13:21;;;;;;;7.45;3.03;;;12.70;99.90;;;;;;4973999;28;20055;-73
2022/11/26 03:15:48;;;;;;;4.63;3.17;;;12.70;99.90;;;;;;4973658;28;20053;-73
2022/11/26 03:18:16;;;;;;;7.72;4.20;;;12.70;99.90;;;;;;4958167;28;20133;-74
2022/11/26 03:20:43;;;;;;;6.38;4.05;;;12.80;99.90;;;;;;4984827;28;20182;-74
2022/11/26 03:23:11;;;;;;;5.78;3.90;;;12.70;99.90;;;;;;4957812;28;20050;-74
2022/11/26 03:25:39;;;;;;;5.57;3.55;;;12.70;99.90;;;;;;4943758;28;20106;-74
2022/11/26 03:28:06;;;;;;;6.00;3.70;;;12.70;99.90;;;;;;4921348;29;20047;-74
2022/11/26 03:30:34;;;;;;;7.32;4.47;;;12.80;99.90;;;;;;4936612;29;20153;-73
2022/11/26 03:33:02;;;;;;;4.97;3.10;;;12.80;99.90;;;;;;4952817;28;20401;-73
2022/11/26 03:35:29;;;;;;;5.72;4.15;;;12.80;99.90;;;;;;4967803;28;20459;-74
2022/11/26 03:37:57;;;;;;;7.22;3.50;;;12.80;99.90;;;;;;4955551;28;20054;-74
2022/11/26 03:40:24;;;;;;;6.35;3.20;;;12.80;99.90;;;;;;4972233;28;20054;-74
2022/11/26 03:42:52;;;;;;;13.52;3.67;;;12.80;99.90;;;;;;4955046;28;20093;-74
2022/11/26 03:45:19;;;;;;;4.60;3.90;;;12.80;99.90;;;;;;4971328;28;20069;-74
2022/11/26 03:47:47;;;;;;;8.93;2.83;;;12.60;99.90;;;;;;4971657;28;20042;-74
2022/11/26 03:50:14;;;;;;;4.80;2.90;;;12.50;99.90;;;;;;4955310;28;20065;-74
2022/11/26 03:52:42;;;;;;;6.60;3.42;;;12.50;99.90;;;;;;4971334;28;20137;-74
2022/11/26 03:55:10;;;;;;;6.30;3.30;;;12.40;99.90;;;;;;4971262;28;20051;-74
2022/11/26 03:57:37;;;;;;;4.00;2.33;;;12.40;99.90;;;;;;4955092;28;20051;-74
2022/11/26 04:00:08;;;;;;;4.15;2.40;;;12.20;99.90;;;;;;4971021;28;20062;-74
2022/11/26 04:02:35;;;;;;;2.90;2.30;;;12.20;99.90;;;;;;4963814;28;20122;-73
2022/11/26 04:05:03;;;;;;;4.80;3.05;;;12.30;99.90;;;;;;4971451;28;20124;-74
2022/11/26 04:07:31;;;;;;;5.68;2.63;;;12.20;99.90;;;;;;4955585;28;20061;-74
2022/11/26 04:09:59;;;;;;;6.13;3.08;;;12.30;99.90;;;;;;4972755;28;20038;-74
2022/11/26 04:12:26;;;;;;;4.03;3.08;;;12.30;99.90;;;;;;4955490;28;20046;-73
2022/11/26 04:14:54;;;;;;;5.15;3.60;;;12.40;99.90;;;;;;4971081;28;20571;-73
2022/11/26 04:17:21;;;;;;;5.72;2.85;;;12.40;99.90;;;;;;4954351;28;20055;-73
2022/11/26 04:19:49;;;;;;;8.00;3.45;;;12.40;99.90;;;;;;4970944;28;20072;-73
2022/11/26 04:22:16;;;;;;;6.05;2.85;;;12.40;99.90;;;;;;4971036;28;20121;-74
2022/11/26 04:24:44;;;;;;;5.25;3.25;;;12.40;99.90;;;;;;4970611;28;20046;-74
2022/11/26 04:27:11;;;;;;;5.55;3.35;;;12.30;99.90;;;;;;4971265;28;20462;-74
2022/11/26 04:29:39;;;;;;;4.25;3.20;;;12.40;99.90;;;;;;4954866;28;20186;-74
2022/11/26 04:32:06;;;;;;;4.03;2.40;;;12.40;99.90;;;;;;4970610;28;20043;-74
2022/11/26 04:34:34;;;;;;;6.05;2.83;;;12.50;99.90;;;;;;4954712;28;20070;-74
2022/11/26 04:37:01;;;;;;;4.03;2.35;;;12.50;99.90;;;;;;4972566;28;20050;-74
2022/11/26 04:39:29;;;;;;;4.65;2.50;;;12.60;99.90;;;;;;4972769;28;20047;-74
2022/11/26 04:41:56;;;;;;;4.00;2.50;;;12.60;99.90;;;;;;4970880;28;20263;-74
2022/11/26 04:44:24;;;;;;;4.55;3.35;;;12.60;99.90;;;;;;4970356;28;20042;-74
2022/11/26 04:46:52;;;;;;;3.05;2.13;;;12.70;99.90;;;;;;4970399;28;20054;-74
2022/11/26 04:49:19;;;;;;;2.80;2.10;;;12.60;99.90;;;;;;4954168;28;20422;-74
2022/11/26 04:51:47;;;;;;;4.50;2.08;;;12.60;99.90;;;;;;4970523;28;20406;-74
2022/11/26 04:54:14;;;;;;;3.45;1.95;;;12.60;99.90;;;;;;4970280;28;20479;-74
2022/11/26 04:56:42;;;;;;;5.00;2.17;;;12.60;99.90;;;;;;4954317;28;20527;-74
2022/11/26 04:59:09;;;;;;;4.38;2.38;;;12.60;99.90;;;;;;4971747;28;20059;-74
2022/11/26 05:01:37;;;;;;;3.85;2.20;;;12.70;99.90;;;;;;4954209;28;20070;-74
2022/11/26 05:04:04;;;;;;;6.80;3.25;;;12.70;99.90;;;;;;4954984;28;20117;-74
2022/11/26 05:06:32;;;;;;;6.22;3.70;;;12.70;99.90;;;;;;4970682;28;20050;-74
2022/11/26 05:09:00;;;;;;;6.60;3.33;;;12.70;99.90;;;;;;4970426;28;20175;-73
2022/11/26 05:11:27;;;;;;;7.65;3.50;;;12.60;99.90;;;;;;4938296;28;20039;-74
2022/11/26 05:13:55;;;;;;;5.38;3.00;;;12.60;99.90;;;;;;4969341;28;20050;-74
2022/11/26 05:16:22;;;;;;;5.00;3.00;;;12.60;99.90;;;;;;4971166;28;20576;-74
2022/11/26 05:18:50;;;;;;;4.70;2.95;;;12.70;99.90;;;;;;4967653;28;20047;-74
2022/11/26 05:21:17;;;;;;;3.25;2.15;;;12.70;99.90;;;;;;4952344;28;20450;-74
2022/11/26 05:23:45;;;;;;;3.88;2.15;;;12.70;99.90;;;;;;4951974;28;20046;-74
2022/11/26 05:26:12;;;;;;;3.35;1.80;;;12.70;99.90;;;;;;4953866;28;20466;-74
2022/11/26 05:28:40;;;;;;;5.65;2.55;;;12.70;99.90;;;;;;4949024;28;20483;-74
2022/11/26 05:31:07;;;;;;;4.38;1.83;;;12.70;99.90;;;;;;4951083;28;20051;-74
2022/11/26 05:33:35;;;;;;;3.55;1.85;;;12.70;99.90;;;;;;4950668;29;20075;-74
2022/11/26 05:36:03;;;;;;;2.45;1.63;;;12.70;99.90;;;;;;4968391;28;20050;-74
2022/11/26 05:38:30;;;;;;;2.97;1.88;;;12.70;99.90;;;;;;4970863;28;20038;-74
2022/11/26 05:40:58;;;;;;;2.42;1.20;;;12.60;99.90;;;;;;4969250;28;20442;-74
2022/11/26 05:43:25;;;;;;;2.78;1.70;;;12.60;99.90;;;;;;4953316;28;20077;-74
2022/11/26 05:45:53;;;;;;;6.40;2.47;;;12.50;99.90;;;;;;4969541;28;20050;-74
2022/11/26 05:48:21;;;;;;;6.85;2.38;;;12.50;99.90;;;;;;4971052;28;20059;-74
2022/11/26 05:50:57;;;;;;;5.15;1.80;;;12.60;99.90;;;;;;4970527;28;20502;-74
2022/11/26 05:53:24;;;;;;;3.55;1.80;;;12.60;99.90;;;;;;4970952;28;20137;-74
2022/11/26 05:55:52;;;;;;;5.82;2.72;;;12.60;99.90;;;;;;4969277;28;20055;-74
2022/11/26 05:58:20;;;;;;;3.25;2.45;;;12.60;99.90;;;;;;4953482;28;20160;-74
2022/11/26 06:00:47;;;;;;;3.85;2.08;;;12.60;99.90;;;;;;4952323;28;20042;-74
2022/11/26 06:03:15;;;;;;;2.88;1.85;;;12.70;99.90;;;;;;4969109;28;20051;-74
2022/11/26 06:05:46;;;;;;;5.63;2.00;;;12.60;99.90;;;;;;4968587;28;20046;-74
2022/11/26 06:08:13;;;;;;;3.03;1.80;;;12.70;99.90;;;;;;4969215;28;20126;-74
2022/11/26 06:10:42;;;;;;;6.20;2.25;;;12.70;99.90;;;;;;4952940;28;20062;-74
2022/11/26 06:13:09;;;;;;;3.30;1.70;;;12.70;99.90;;;;;;4968568;28;20042;-74
2022/11/26 06:15:37;;;;;;;2.38;1.77;;;12.80;99.90;;;;;;4968809;28;20153;-74
2022/11/26 06:18:05;;;;;;;4.85;1.73;;;12.80;99.90;;;;;;4968536;28;20118;-73
2022/11/26 06:20:32;;;;;;;4.65;3.00;;;12.80;99.90;;;;;;4968471;28;20059;-74
2022/11/26 06:23:00;;;;;;;6.55;5.65;;;12.90;99.90;;;;;;4952395;28;20118;-74
2022/11/26 06:25:28;;;;;;;8.65;7.85;;;12.90;99.90;;;;;;4968887;28;20047;-74
2022/11/26 06:27:56;;;;;;;6.22;5.72;;;12.90;99.90;;;;;;4968639;28;20145;-74
2022/11/26 06:30:23;;;;;;;4.38;3.97;;;13.00;99.90;;;;;;4952580;28;20433;-74
2022/11/26 06:32:51;;;;;;;5.43;3.00;;;13.00;99.90;;;;;;4936291;28;20817;-74
2022/11/26 06:35:18;;;;;;;5.18;3.08;;;13.00;99.90;;;;;;4968675;28;20051;-74
2022/11/26 06:37:46;;;;;;;4.72;3.38;;;13.10;99.90;;;;;;4952598;28;20815;-74
2022/11/26 06:40:18;;;;;;;5.80;3.08;;;13.20;99.90;;;;;;4969643;28;20085;-74
2022/11/26 06:42:51;;;;;;;5.57;2.72;;;13.30;99.90;;;;;;4965618;28;20062;-74
2022/11/26 06:45:20;;;;;;;3.30;2.58;;;13.30;99.90;;;;;;4967608;28;20157;-75
2022/11/26 06:47:50;;;;;;;2.35;1.58;;;13.40;99.90;;;;;;4977973;28;20130;-75
2022/11/26 06:50:20;;;;;;;4.10;2.50;;;13.60;99.90;;;;;;4967936;28;20089;-75
2022/11/26 06:52:54;;;;;;;3.40;2.10;;;13.80;99.90;;;;;;4955979;28;20557;-75
2022/11/26 06:55:22;;;;;;;3.72;2.03;;;13.90;99.90;;;;;;4968421;28;20058;-75
2022/11/26 06:57:50;;;;;;;6.32;1.98;;;13.90;99.90;;;;;;4976467;28;20061;-75
2022/11/26 07:00:19;;;;;;;3.50;1.30;;;13.90;99.90;;;;;;4968105;28;20079;-75
2022/11/26 07:02:46;;;;;;;2.53;1.58;;;13.80;99.90;;;;;;4974225;28;20864;-75
2022/11/26 07:05:14;;;;;;;5.03;1.92;;;13.70;99.90;;;;;;4967304;28;20113;-74
2022/11/26 07:07:41;;;;;;;6.93;1.92;;;13.70;99.90;;;;;;4979597;28;20564;-75
2022/11/26 07:10:09;;;;;;;4.97;2.30;;;13.70;99.90;;;;;;4966840;28;20061;-75
2022/11/26 07:12:36;;;;;;;3.22;1.88;;;13.70;99.90;;;;;;4971313;28;20049;-75
2022/11/26 07:15:05;;;;;;;7.53;2.58;;;13.70;99.90;;;;;;4939179;29;20051;-74
2022/11/26 07:17:32;;;;;;;3.42;2.35;;;13.70;99.90;;;;;;4979179;28;20472;-75
2022/11/26 07:20:00;;;;;;;2.55;1.45;;;13.70;99.90;;;;;;4949131;28;20457;-75
2022/11/26 07:22:27;;;;;;;1.98;1.25;;;13.70;99.90;;;;;;4960861;28;20408;-74
2022/11/26 07:24:55;;;;;;;2.53;1.30;;;13.60;99.90;;;;;;4964903;28;20113;-75
2022/11/26 07:27:22;;;;;;;5.13;1.27;;;13.70;99.90;;;;;;4976701;28;20062;-74
2022/11/26 07:29:50;;;;;;;1.85;1.00;;;13.60;99.90;;;;;;4973088;28;20086;-75
2022/11/26 07:32:19;;;;;;;1.48;1.02;;;13.60;99.90;;;;;;4954321;28;20051;-75
2022/11/26 07:34:46;;;;;;;3.38;1.58;;;13.50;99.90;;;;;;4975328;28;20049;-75
2022/11/26 07:37:15;;;;;;;4.25;1.80;;;13.60;99.90;;;;;;4953187;28;20085;-75
2022/11/26 07:39:43;;;;;;;3.75;1.83;;;13.50;99.90;;;;;;4975362;28;20043;-75
2022/11/26 07:42:10;;;;;;;3.17;2.35;;;13.50;99.90;;;;;;4958694;28;20106;-78
2022/11/26 07:44:38;;;;;;;2.58;1.40;;;13.50;99.90;;;;;;4955020;28;20039;-76
2022/11/26 07:47:06;;;;;;;2.17;1.20;;;13.50;99.90;;;;;;4968404;28;20508;-77
2022/11/26 07:49:34;;;;;;;1.85;1.27;;;13.50;99.90;;;;;;4952041;28;20145;-77
2022/11/26 07:52:02;;;;;;;5.40;2.53;;;13.50;99.90;;;;;;4970394;28;20039;-77
2022/11/26 07:54:30;;;;;;;9.80;3.03;;;13.50;99.90;;;;;;4956132;28;20047;-77
2022/11/26 07:56:57;;;;;;;4.05;2.58;;;13.50;99.90;;;;;;4955528;28;20507;-77
2022/11/26 07:59:25;;;;;;;6.32;2.70;;;13.50;99.90;;;;;;4971530;28;20218;-77
2022/11/26 08:01:52;;;;;;;3.75;2.28;;;13.50;99.90;;;;;;4971789;28;20536;-78
2022/11/26 08:04:20;;;;;;;4.47;2.35;;;13.60;99.90;;;;;;4940198;28;20070;-77
2022/11/26 08:06:48;;;;;;;3.15;1.85;;;13.60;99.90;;;;;;4971332;28;20137;-77
2022/11/26 08:09:15;;;;;;;3.78;2.17;;;13.60;99.90;;;;;;4972046;28;20491;-77
2022/11/26 08:11:43;;;;;;;4.20;2.45;;;13.60;99.90;;;;;;4971732;28;20046;-76
2022/11/26 08:14:11;;;;;;;2.35;1.65;;;13.60;99.90;;;;;;4971004;28;20522;-76
2022/11/26 08:16:39;;;;;;;3.67;2.13;;;13.70;99.90;;;;;;4971410;28;20054;-77
2022/11/26 08:19:11;;;;;;;6.63;2.55;;;13.70;99.90;;;;;;4955630;28;20050;-78
2022/11/26 08:21:39;;;;;;;7.78;3.03;;;13.70;99.90;;;;;;4955690;28;20050;-78
2022/11/26 08:24:15;;;;;;;9.43;4.18;;;13.80;99.90;;;;;;4972148;28;20126;-77
2022/11/26 08:26:44;;;;;;;4.75;2.45;;;13.80;99.90;;;;;;4970931;28;20074;-78
2022/11/26 08:29:13;;;;;;;8.52;3.28;;;13.90;99.90;;;;;;4970620;28;20050;-78
2022/11/26 08:31:42;;;;;;;6.30;2.65;;;13.80;99.90;;;;;;4970645;28;20042;-78
2022/11/26 08:34:14;;;;;;;7.07;3.53;;;13.80;99.90;;;;;;4952978;28;20047;-78
2022/11/26 08:36:42;;;;;;;9.18;5.38;;;13.90;99.90;;;;;;4954221;28;20117;-77
2022/11/26 08:39:16;;;;;;;7.07;4.10;;;13.90;99.90;;;;;;4970735;28;20078;-76
2022/11/26 08:41:43;;;;;;;8.95;4.30;;;13.90;99.90;;;;;;4955033;28;20486;-77
2022/11/26 08:44:15;;;;;;;3.97;2.10;;;14.00;99.90;;;;;;4954872;28;20059;-77
2022/11/26 08:46:42;;;;;;;4.68;2.30;;;14.00;99.90;;;;;;4970267;28;20065;-77
2022/11/26 08:49:12;;;;;;;5.80;2.67;;;14.00;99.90;;;;;;4972229;28;20054;-76
2022/11/26 08:51:40;;;;;;;6.10;2.72;;;14.00;99.90;;;;;;4971873;28;20046;-78
2022/11/26 08:54:07;;;;;;;5.68;3.42;;;14.10;99.90;;;;;;4970562;28;20373;-77
2022/11/26 08:56:36;;;;;;;8.65;4.63;;;14.10;99.90;;;;;;4954398;28;20146;-76
2022/11/26 08:59:03;;;;;;;7.38;3.88;;;14.10;99.90;;;;;;4972107;28;20121;-77
2022/11/26 09:01:32;;;;;;;7.93;3.75;;;14.10;99.90;;;;;;4971195;28;20039;-77
2022/11/26 09:04:01;;;;;;;8.38;3.60;;;14.10;99.90;;;;;;4970225;28;20042;-77
2022/11/26 09:06:31;;;;;;;6.78;3.45;;;14.20;99.90;;;;;;4971021;28;20047;-77
2022/11/26 09:09:12;;;;;;;7.32;3.28;;;14.10;99.90;;;;;;4970498;28;20042;-77
2022/11/26 09:11:45;;;;;;;7.97;4.00;;;14.20;99.90;;;;;;4970070;28;20118;-77
2022/11/26 09:14:14;;;;;;;9.85;3.60;;;14.20;99.90;;;;;;4966876;28;20055;-77
2022/11/26 09:16:42;;;;;;;11.75;6.28;;;14.20;99.90;;;;;;4971138;28;20491;-76
2022/11/26 09:19:12;;;;;;;7.78;4.18;;;14.20;99.90;;;;;;4953625;28;20054;-77
2022/11/26 09:21:40;;;;;;;7.03;3.75;;;14.20;99.90;;;;;;4971696;28;20058;-76
2022/11/26 09:24:08;;;;;;;8.90;5.30;;;14.20;99.90;;;;;;4970518;28;20082;-77
2022/11/26 09:26:36;;;;;;;10.23;7.13;;;14.20;99.90;;;;;;4967552;28;20406;-78
2022/11/26 09:29:04;;;;;;;10.30;6.22;;;14.10;99.90;;;;;;4952058;28;20055;-78
2022/11/26 09:31:32;;;;;;;14.25;7.13;;;14.10;99.90;;;;;;4934737;29;20674;-78
2022/11/26 09:34:00;;;;;;;16.13;8.85;;;14.10;99.90;;;;;;4963169;28;20113;-77
2022/11/26 09:36:28;;;;;;;16.20;9.82;;;14.10;99.90;;;;;;4969456;28;20097;-76
2022/11/26 09:38:58;;;;;;;13.93;9.40;;;14.10;99.90;;;;;;4969677;28;20047;-78
2022/11/26 09:41:47;;;;;;;19.58;12.27;;;14.00;99.90;;;;;;4969391;28;20055;-76
2022/11/26 09:44:27;;;;;;;29.83;18.05;;;14.10;99.90;;;;;;4953826;28;20051;-76
2022/11/26 09:47:09;;;;;;;19.70;14.23;;;14.10;99.90;;;;;;4969334;28;20082;-77
2022/11/26 09:49:57;;;;;;;22.77;13.63;;;14.10;99.90;;;;;;4952950;28;20066;-76
2022/11/26 09:52:29;;;;;;;15.57;10.25;;;14.20;99.90;;;;;;4952235;28;20046;-75
2022/11/26 09:55:15;;;;;;;17.17;11.40;;;14.20;99.90;;;;;;4969205;28;20093;-74
2022/11/26 09:57:53;;;;;;;119.20;28.77;;;14.30;99.90;;;;;;4969335;28;20053;-77
2022/11/26 10:00:29;;;;;;;31.17;15.30;;;14.30;99.90;;;;;;4969432;28;20174;-76
2022/11/26 10:02:57;;;;;;;18.73;13.85;;;14.30;99.90;;;;;;4953200;28;20047;-76
2022/11/26 10:05:41;;;;;;;20.42;12.63;;;14.40;99.90;;;;;;4970458;28;20060;-79
2022/11/26 10:08:49;;;;;;;16.60;9.93;;;14.40;99.90;;;;;;4938037;28;20107;-79
2022/11/26 10:11:50;;;;;;;8.82;7.55;;;14.40;99.90;;;;;;4968584;28;20133;-79
2022/11/26 10:14:49;;;;;;;11.35;7.22;;;14.50;99.90;;;;;;4969112;28;20520;-77
2022/11/26 10:17:38;;;;;;;14.20;9.93;;;14.50;99.90;;;;;;4952858;28;20054;-79
2022/11/26 10:20:21;;;;;;;16.90;10.57;;;14.50;99.90;;;;;;4969653;28;20117;-78
2022/11/26 10:22:59;;;;;;;17.58;12.02;;;14.60;99.90;;;;;;4969119;28;20046;-79
2022/11/26 10:25:30;;;;;;;22.10;13.82;;;14.60;99.90;;;;;;4969185;28;20058;-78
2022/11/26 10:27:59;;;;;;;22.75;14.40;;;14.60;99.90;;;;;;4969266;28;20077;-78
2022/11/26 10:30:29;;;;;;;19.58;11.68;;;14.60;99.90;;;;;;4937137;28;20063;-79
2022/11/26 10:33:01;;;;;;;16.15;10.27;;;14.60;99.90;;;;;;4968786;28;20050;-78
2022/11/26 10:35:28;;;;;;;17.33;10.32;;;14.60;99.90;;;;;;4969053;28;20043;-79
2022/11/26 10:37:57;;;;;;;15.18;8.50;;;14.60;99.90;;;;;;4952682;28;20186;-79
2022/11/26 10:40:28;;;;;;;13.60;7.38;;;14.60;99.90;;;;;;4970013;28;20046;-77
2022/11/26 10:43:08;;;;;;;10.40;6.38;;;14.50;99.90;;;;;;4968404;28;20109;-75
2022/11/26 10:45:52;;;;;;;10.23;5.55;;;14.50;99.90;;;;;;4952443;28;20544;-76
2022/11/26 10:48:23;;;;;;;11.10;7.82;;;14.50;99.90;;;;;;4952655;28;20055;-76
2022/11/26 10:51:13;;;;;;;17.40;10.52;;;14.50;99.90;;;;;;4952676;28;20062;-75
2022/11/26 10:54:01;;;;;;;16.98;9.63;;;14.50;99.90;;;;;;4953157;28;20051;-76
2022/11/26 10:56:40;;;;;;;12.63;8.95;;;14.50;99.90;;;;;;4962879;28;20047;-76
2022/11/26 10:59:25;;;;;;;17.38;9.90;;;14.50;99.90;;;;;;4933557;29;20071;-76
2022/11/26 11:02:00;;;;;;;17.83;9.95;;;14.50;99.90;;;;;;4933695;29;20043;-75
2022/11/26 11:04:33;;;;;;;15.70;8.30;;;14.60;99.90;;;;;;4965797;28;20051;-75
2022/11/26 11:07:01;;;;;;;13.30;8.95;;;14.60;99.90;;;;;;4968413;28;20497;-75
2022/11/26 11:09:33;;;;;;;13.48;8.70;;;14.60;99.90;;;;;;4960751;28;20044;-75
2022/11/26 11:12:10;;;;;;;11.68;7.55;;;14.60;99.90;;;;;;4949025;28;20054;-75
2022/11/26 11:14:39;;;;;;;11.02;5.57;;;14.60;99.90;;;;;;4919335;28;20508;-75
2022/11/26 11:17:28;;;;;;;12.35;6.80;;;14.50;99.90;;;;;;4968154;28;20058;-75
2022/11/26 11:19:58;;;;;;;13.73;6.97;;;14.50;99.90;;;;;;4968156;28;20043;-75
2022/11/26 11:22:26;;;;;;;10.90;7.15;;;14.50;99.90;;;;;;4952708;28;20053;-75
2022/11/26 11:24:57;;;;;;;14.55;8.32;;;14.50;99.90;;;;;;4951859;28;20982;-76
2022/11/26 11:27:42;;;;;;;11.77;8.15;;;14.60;99.90;;;;;;4971593;28;20058;-76
2022/11/26 11:30:32;;;;;;;8.50;5.70;;;14.60;99.90;;;;;;4956495;28;20067;-76
2022/11/26 11:33:24;;;;;;;11.88;5.60;;;14.70;99.90;;;;;;4938013;28;20149;-75
2022/11/26 11:36:12;;;;;;;5.78;3.75;;;14.70;99.90;;;;;;4971442;28;20047;-75
2022/11/26 11:38:55;;;;;;;7.38;3.28;;;14.70;99.90;;;;;;4955793;28;20150;-75
2022/11/26 11:41:31;;;;;;;6.15;3.22;;;14.70;99.90;;;;;;4971624;28;20113;-74
2022/11/26 11:44:12;;;;;;;6.85;3.50;;;14.70;99.90;;;;;;4973172;28;20047;-75
2022/11/26 12:01:09;;;;;;;7.07;3.85;;;14.80;99.90;;;;;;5125673;27;20412;-74
2022/11/26 12:03:58;;;;;;;6.18;3.47;;;14.90;99.90;;;;;;5066024;28;20056;-74
2022/11/26 12:06:44;;;;;;;5.00;3.30;;;14.90;99.90;;;;;;5101088;28;20756;-74
2022/11/26 12:09:37;;;;;;;6.97;4.13;;;15.00;99.90;;;;;;5066967;28;20753;-73
2022/11/26 12:12:29;;;;;;;7.10;4.32;;;15.10;99.90;;;;;;5105132;28;20103;-74
2022/11/26 12:14:59;;;;;;;7.65;5.68;;;15.10;99.90;;;;;;5105365;28;20149;-74
2022/11/26 12:17:42;;;;;;;6.97;4.60;;;15.10;99.90;;;;;;5087008;28;20146;-73
2022/11/26 12:20:43;;;;;;;8.43;4.20;;;15.10;99.90;;;;;;5086637;28;20036;-73
2022/11/26 12:23:28;;;;;;;6.25;3.28;;;15.10;99.90;;;;;;5087257;28;20036;-73
2022/11/26 12:26:06;;;;;;;6.30;3.60;;;15.10;99.90;;;;;;5086797;28;20075;-73
2022/11/26 12:28:41;;;;;;;6.55;3.20;;;15.10;99.90;;;;;;5086638;28;20044;-73
2022/11/26 12:31:14;;;;;;;;;;;15.10;99.90;;;;;;5105286;28;20139;-74
2022/11/26 12:33:56;;;;;;;7.93;4.55;;;15.10;99.90;;;;;;5086943;28;19921;-73
2022/11/26 12:36:34;;;;;;;9.75;4.50;;;15.10;99.90;;;;;;5087161;28;20101;-72
2022/11/26 12:39:17;;;;;;;7.53;4.22;;;15.10;99.90;;;;;;5069950;28;20040;-73
2022/11/26 12:42:29;;;;;;;6.03;4.10;;;15.10;99.90;;;;;;5086675;28;20131;-73
2022/11/26 12:45:15;;;;;;;5.90;3.40;;;15.10;99.90;;;;;;5051307;28;20052;-73
2022/11/26 12:47:50;;;;;;;6.90;4.38;;;15.10;99.90;;;;;;5120890;28;20052;-74
2022/11/26 12:50:22;;;;;;;5.43;2.78;;;15.10;99.90;;;;;;5066722;28;20529;-73
2022/11/26 12:52:58;;;;;;;4.22;2.70;;;15.10;99.90;;;;;;5084586;28;20048;-74
2022/11/26 12:55:49;;;;;;;6.45;2.10;;;15.20;99.90;;;;;;5050175;28;20131;-73
2022/11/26 12:58:33;;;;;;;4.05;2.20;;;15.10;99.90;;;;;;5032495;28;20056;-76
2022/11/26 13:01:01;;;;;;;3.17;2.00;;;15.20;99.90;;;;;;5055331;28;20510;-73
2022/11/26 13:03:32;;;;;;;5.38;2.45;;;15.20;99.90;;;;;;5020200;28;20221;-73
2022/11/26 13:06:02;;;;;;;4.68;2.63;;;15.10;99.90;;;;;;5052705;28;20121;-73
2022/11/26 13:08:36;;;;;;;3.20;1.73;;;15.10;99.90;;;;;;5070812;28;20127;-74
2022/11/26 13:11:37;;;;;;;6.75;2.80;;;15.10;99.90;;;;;;5070587;28;20047;-73
2022/11/26 13:14:40;;;;;;;2.45;1.45;;;15.20;99.90;;;;;;5070283;28;20126;-73
2022/11/26 13:17:15;;;;;;;4.50;2.03;;;15.20;99.90;;;;;;5013490;28;20055;-73
2022/11/26 13:19:55;;;;;;;2.10;1.45;;;15.20;99.90;;;;;;5052422;28;20441;-74
2022/11/26 13:22:58;;;;;;;2.30;1.70;;;15.20;99.90;;;;;;5052319;28;20044;-73
2022/11/26 13:26:09;;;;;;;2.70;1.50;;;15.20;99.90;;;;;;5070475;28;20044;-74